High gust

Not for real navigation. The accuracy of this data is not assured See disclaimer for more information



ICAO NAME COUNTRY WIND Kt GUST Kt VIS m TEMP/DEW C BARO METAR
CZPC Pincher Creek Airport Canada 42 50 14400 0/-6 29.95 CZPC 181700Z AUTO 25042G50KT 9SM 00/M06 A2995 RMK CLD MISG SLP183
KFKR 23 45 800 16/14 29.30 KFKR 181655Z AUTO 31023G45KT 0.5SM +VCTSRA BKN005 OVC012 16/14 A2930 RMK AO2 LTG NOOP W THRU E P0046
ENZV Stavanger / Sola Norway 33 44 8000 5/1 29.41 ENZV 181650Z 30033G44KT 8000 SHRA FEW013 SCT022CB BKN033 05/01 Q0996 TEMPO 4000 SHRAGS BKN012CB
KELK 33 44 16000 0/0 30.13 KELK 181655Z AUTO 35033G44KT 10SM SCT037 A3013 RMK AO2
KCLK Clinton, Clinton Regional Airp OK United States 35 44 16000 12/0 30.14 KCLK 181715Z AUTO 34035G44KT 10SM SCT036 SCT042 12/00 A3014 RMK AO2

Show more